createdAt,value
2022-10-03T00:00:07.742Z,10.3
2022-10-03T00:05:08.557Z,10.3
2022-10-03T00:10:08.229Z,10.1
2022-10-03T00:15:07.929Z,10.1
2022-10-03T00:20:17.641Z,10.0
2022-10-03T00:25:08.335Z,10.0
2022-10-03T00:30:08.040Z,10.0
2022-10-03T00:35:07.710Z,10.0
2022-10-03T00:40:15.691Z,10.0
2022-10-03T00:45:08.367Z,10.0
2022-10-03T00:50:08.108Z,9.6
2022-10-03T00:55:07.807Z,9.6
2022-10-03T01:00:18.469Z,9.8
2022-10-03T01:05:08.191Z,9.8
2022-10-03T01:10:07.882Z,9.6
2022-10-03T01:15:08.588Z,9.6
2022-10-03T01:20:08.299Z,9.6
2022-10-03T01:25:08.002Z,9.6
2022-10-03T01:30:07.671Z,9.3
2022-10-03T01:35:08.427Z,9.3
2022-10-03T01:40:08.136Z,9.3
2022-10-03T01:45:07.830Z,9.3
2022-10-03T01:50:08.541Z,9.1
2022-10-03T01:55:18.198Z,9.1
2022-10-03T02:00:07.848Z,9.1
2022-10-03T02:05:08.553Z,9.1
2022-10-03T02:10:08.252Z,9.1
2022-10-03T02:15:07.924Z,9.1
2022-10-03T02:20:08.636Z,9.1
2022-10-03T02:25:08.319Z,9.1
2022-10-03T02:30:08.020Z,9.0
2022-10-03T02:35:07.739Z,9.0
2022-10-03T02:40:08.467Z,9.0
2022-10-03T02:45:08.163Z,9.0
2022-10-03T02:50:07.881Z,9.0
2022-10-03T02:55:08.604Z,9.0
2022-10-03T03:00:08.283Z,8.8
2022-10-03T03:05:17.945Z,8.8
2022-10-03T03:10:07.711Z,8.8
2022-10-03T03:15:08.434Z,8.8
2022-10-03T03:20:08.182Z,9.0
2022-10-03T03:25:07.895Z,9.0
2022-10-03T03:30:15.699Z,9.0
2022-10-03T03:35:08.375Z,9.0
2022-10-03T03:40:08.072Z,9.0
2022-10-03T03:45:07.725Z,9.0
2022-10-03T03:50:08.419Z,8.8
2022-10-03T03:55:08.126Z,8.8
2022-10-03T04:00:17.817Z,8.8
2022-10-03T04:05:02.609Z,8.8
2022-10-03T04:10:02.416Z,8.6
2022-10-03T04:15:02.184Z,8.6
2022-10-03T04:20:01.983Z,8.6
2022-10-03T04:25:01.698Z,8.6
2022-10-03T04:30:02.564Z,8.6
2022-10-03T04:35:02.499Z,8.6
2022-10-03T04:40:02.402Z,8.5
2022-10-03T04:45:04.540Z,8.5
2022-10-03T04:50:02.367Z,8.5
2022-10-03T04:55:02.089Z,8.5
2022-10-03T05:00:01.846Z,8.1
2022-10-03T05:05:02.674Z,8.1
2022-10-03T05:10:06.476Z,8.1
2022-10-03T05:15:02.250Z,8.1
2022-10-03T05:20:02.189Z,7.9
2022-10-03T05:25:02.009Z,7.9
2022-10-03T05:30:03.449Z,7.6
2022-10-03T05:35:02.468Z,7.6
2022-10-03T05:40:02.403Z,7.9
2022-10-03T05:45:02.230Z,7.9
2022-10-03T05:50:05.549Z,7.9
2022-10-03T05:55:08.321Z,7.9
2022-10-03T06:00:02.158Z,7.9
2022-10-03T06:05:02.112Z,7.9
2022-10-03T06:10:02.006Z,7.9
2022-10-03T06:15:01.806Z,7.9
2022-10-03T06:20:02.568Z,7.9
2022-10-03T06:25:02.413Z,7.9
2022-10-03T06:30:02.216Z,7.9
2022-10-03T06:35:02.080Z,8.0
2022-10-03T06:40:04.186Z,8.1
2022-10-03T06:45:08.753Z,8.1
2022-10-03T06:50:12.676Z,8.5
2022-10-03T06:55:02.507Z,8.5
2022-10-03T07:00:02.291Z,8.8
2022-10-03T07:05:02.038Z,8.8
2022-10-03T07:10:02.067Z,9.1
2022-10-03T07:15:01.802Z,9.1
2022-10-03T07:20:02.768Z,9.6
2022-10-03T07:25:02.931Z,9.6
2022-10-03T07:30:10.371Z,10.1
2022-10-03T07:35:02.138Z,10.1
2022-10-03T07:40:01.952Z,10.5
2022-10-03T07:45:01.815Z,10.5
2022-10-03T07:50:02.670Z,10.8
2022-10-03T07:55:02.507Z,10.8
2022-10-03T08:00:02.429Z,11.6
2022-10-03T08:05:02.368Z,12.3
2022-10-03T08:10:02.287Z,12.3
2022-10-03T08:15:02.230Z,13.3
2022-10-03T08:20:02.233Z,13.3
2022-10-03T08:25:12.343Z,14.3
2022-10-03T08:30:02.136Z,14.3
2022-10-03T08:35:01.921Z,15.6
2022-10-03T08:40:02.691Z,15.5
2022-10-03T08:45:03.436Z,15.5
2022-10-03T08:50:05.545Z,16.0
2022-10-03T08:55:02.669Z,16.0
2022-10-03T09:00:02.486Z,15.6
2022-10-03T09:05:02.306Z,15.6
2022-10-03T09:10:02.089Z,15.8
2022-10-03T09:15:01.882Z,15.8
2022-10-03T09:20:02.661Z,16.3
2022-10-03T09:25:12.518Z,16.3
2022-10-03T09:30:02.272Z,17.3
2022-10-03T09:35:06.827Z,17.3
2022-10-03T09:40:02.054Z,16.7
2022-10-03T09:45:01.888Z,16.7
2022-10-03T09:50:02.743Z,17.7
2022-10-03T09:55:02.568Z,17.7
2022-10-03T10:00:02.423Z,18.5
2022-10-03T10:05:02.291Z,18.5
2022-10-03T10:10:02.132Z,17.2
2022-10-03T10:15:12.073Z,17.2
2022-10-03T10:20:01.811Z,17.1
2022-10-03T10:25:02.564Z,17.1
2022-10-03T10:30:02.492Z,18.6
2022-10-03T10:35:02.316Z,18.6
2022-10-03T10:40:02.294Z,18.8
2022-10-03T10:45:02.219Z,18.8
2022-10-03T10:50:02.202Z,19.3
2022-10-03T10:55:03.570Z,19.3
2022-10-03T11:00:02.372Z,19.5
2022-10-03T11:05:02.261Z,19.5
2022-10-03T11:10:02.116Z,18.8
2022-10-03T11:15:01.924Z,18.8
2022-10-03T11:20:02.703Z,20.0
2022-10-03T11:25:12.437Z,20.0
2022-10-03T11:30:02.180Z,19.2
2022-10-03T11:35:01.983Z,19.2
2022-10-03T11:40:01.820Z,19.2
2022-10-03T11:45:02.612Z,19.2
2022-10-03T11:50:02.409Z,19.7
2022-10-03T11:55:02.232Z,19.7
2022-10-03T12:00:01.953Z,21.2
2022-10-03T12:05:01.699Z,19.3
2022-10-03T12:10:12.411Z,19.3
2022-10-03T12:15:02.193Z,18.5
2022-10-03T12:20:01.996Z,18.5
2022-10-03T12:25:01.727Z,19.0
2022-10-03T12:30:02.485Z,19.0
2022-10-03T12:35:02.221Z,17.7
2022-10-03T12:40:02.037Z,17.8
2022-10-03T12:45:04.649Z,17.8
2022-10-03T12:50:02.370Z,17.5
2022-10-03T12:55:02.112Z,17.5
2022-10-03T13:00:01.929Z,17.3
2022-10-03T13:05:02.684Z,17.3
2022-10-03T13:10:02.441Z,17.3
2022-10-03T13:15:02.369Z,17.3
2022-10-03T13:20:06.522Z,18.6
2022-10-03T13:25:02.443Z,18.6
2022-10-03T13:30:02.373Z,18.5
2022-10-03T13:35:02.315Z,18.5
2022-10-03T13:40:02.104Z,18.6
2022-10-03T13:45:01.964Z,18.6
2022-10-03T13:50:01.889Z,18.7
2022-10-03T13:55:02.711Z,18.7
2022-10-03T14:00:12.439Z,19.1
2022-10-03T14:05:02.207Z,19.1
2022-10-03T14:10:01.999Z,19.3
2022-10-03T14:15:01.731Z,19.3
2022-10-03T14:20:02.502Z,20.0
2022-10-03T14:25:02.305Z,20.0
2022-10-03T14:30:02.021Z,19.7
2022-10-03T14:35:02.064Z,19.7
2022-10-03T14:40:01.817Z,17.7
2022-10-03T14:45:02.646Z,17.5
2022-10-03T14:50:02.492Z,17.5
2022-10-03T14:55:02.347Z,17.1
2022-10-03T15:00:02.126Z,17.1
2022-10-03T15:05:01.985Z,17.1
2022-10-03T15:10:01.802Z,17.1
2022-10-03T15:15:02.527Z,17.1
2022-10-03T15:20:02.266Z,17.1
2022-10-03T15:25:02.025Z,17.0
2022-10-03T15:30:02.113Z,17.0
2022-10-03T15:35:01.964Z,17.0
2022-10-03T15:40:01.694Z,17.0
2022-10-03T15:45:02.417Z,17.0
2022-10-03T15:50:02.142Z,17.0
2022-10-03T15:55:12.225Z,16.7
2022-10-03T16:00:03.498Z,16.7
2022-10-03T16:05:02.561Z,16.7
2022-10-03T16:10:02.536Z,16.7
2022-10-03T16:15:02.327Z,17.1
2022-10-03T16:20:02.334Z,17.1
2022-10-03T16:25:04.590Z,16.7
2022-10-03T16:30:10.856Z,16.7
2022-10-03T16:35:02.648Z,16.3
2022-10-03T16:40:02.492Z,16.2
2022-10-03T16:45:02.328Z,16.2
2022-10-03T16:50:02.232Z,15.6
2022-10-03T16:55:02.079Z,15.6
2022-10-03T17:00:02.002Z,15.1
2022-10-03T17:05:01.929Z,15.1
2022-10-03T17:10:02.786Z,14.6
2022-10-03T17:15:02.521Z,14.6
2022-10-03T17:20:02.363Z,14.3
2022-10-03T17:25:02.193Z,14.1
2022-10-03T17:30:12.001Z,14.0
2022-10-03T17:35:01.741Z,14.0
2022-10-03T17:40:02.570Z,13.6
2022-10-03T17:45:02.310Z,13.6
2022-10-03T17:50:02.187Z,13.6
2022-10-03T17:55:02.077Z,13.6
2022-10-03T18:00:01.813Z,13.1
2022-10-03T18:05:02.590Z,13.1
2022-10-03T18:10:02.369Z,13.3
2022-10-03T18:15:12.192Z,13.3
2022-10-03T18:20:01.922Z,13.1
2022-10-03T18:25:02.686Z,13.1
2022-10-03T18:30:02.469Z,12.8
2022-10-03T18:35:02.332Z,12.8
2022-10-03T18:40:02.257Z,13.1
2022-10-03T18:45:02.328Z,13.1
2022-10-03T18:50:02.212Z,12.8
2022-10-03T18:55:14.126Z,12.8
2022-10-03T19:00:02.102Z,12.6
2022-10-03T19:05:02.064Z,12.6
2022-10-03T19:10:01.932Z,12.5
2022-10-03T19:15:02.722Z,12.5
2022-10-03T19:20:02.535Z,12.3
2022-10-03T19:25:02.365Z,12.3
2022-10-03T19:30:02.110Z,12.1
2022-10-03T19:35:01.922Z,12.1
2022-10-03T19:40:02.656Z,11.8
2022-10-03T19:45:02.404Z,11.8
2022-10-03T19:50:02.220Z,11.6
2022-10-03T19:55:02.165Z,11.6
2022-10-03T20:00:01.977Z,11.3
2022-10-03T20:05:01.814Z,11.3
2022-10-03T20:10:02.580Z,11.3
2022-10-03T20:15:02.407Z,11.3
2022-10-03T20:20:02.215Z,11.3
2022-10-03T20:25:02.049Z,11.3
2022-10-03T20:30:01.899Z,11.6
2022-10-03T20:35:25.474Z,11.6
2022-10-03T20:40:08.213Z,11.6
2022-10-03T20:45:07.907Z,11.6
2022-10-03T20:50:08.603Z,11.8
2022-10-03T20:55:08.312Z,11.8
2022-10-03T21:00:08.000Z,11.8
2022-10-03T21:05:07.710Z,11.8
2022-10-03T21:10:08.391Z,11.6
2022-10-03T21:15:08.258Z,11.6
2022-10-03T21:20:07.958Z,11.6
2022-10-03T21:25:07.680Z,11.6
2022-10-03T21:30:08.403Z,11.6
2022-10-03T21:35:08.100Z,11.6
2022-10-03T21:40:12.174Z,11.3
2022-10-03T21:45:07.877Z,11.3
2022-10-03T21:50:08.597Z,11.1
2022-10-03T21:55:08.301Z,11.1
2022-10-03T22:00:08.039Z,10.8
2022-10-03T22:05:07.741Z,10.8
2022-10-03T22:10:08.480Z,10.8
2022-10-03T22:15:08.167Z,10.8
2022-10-03T22:20:12.383Z,10.8
2022-10-03T22:25:08.412Z,10.8
2022-10-03T22:30:08.119Z,10.8
2022-10-03T22:35:07.817Z,10.8
2022-10-03T22:40:08.498Z,11.3
2022-10-03T22:45:08.211Z,11.3
2022-10-03T22:50:07.914Z,11.3
2022-10-03T22:55:08.619Z,11.3
2022-10-03T23:01:02.084Z,11.3
2022-10-03T23:05:08.688Z,11.3
2022-10-03T23:10:07.762Z,11.3
2022-10-03T23:15:08.454Z,11.3
2022-10-03T23:20:08.156Z,11.1
2022-10-03T23:25:07.854Z,11.1
2022-10-03T23:30:08.550Z,11.0
2022-10-03T23:35:08.265Z,11.0
2022-10-03T23:40:07.945Z,11.0
2022-10-03T23:45:08.636Z,11.0
2022-10-03T23:50:08.335Z,11.1
2022-10-03T23:55:08.050Z,11.1
